createdAt,value
2018-05-21T00:00:01.816Z,10.31
2018-05-21T00:02:29.465Z,10.26
2018-05-21T00:04:57.123Z,10.23
2018-05-21T00:07:24.787Z,10.18
2018-05-21T00:09:52.451Z,10.15
2018-05-21T00:12:20.114Z,10.13
2018-05-21T00:14:47.776Z,10.10
2018-05-21T00:17:15.378Z,10.07
2018-05-21T00:19:43.103Z,10.03
2018-05-21T00:22:10.705Z,10.00
2018-05-21T00:24:38.420Z,9.97
2018-05-21T00:27:06.031Z,9.93
2018-05-21T00:29:33.633Z,9.90
2018-05-21T00:32:01.256Z,9.87
2018-05-21T00:34:28.875Z,9.84
2018-05-21T00:36:56.533Z,9.81
2018-05-21T00:39:24.194Z,9.77
2018-05-21T00:41:51.857Z,9.72
2018-05-21T00:44:19.465Z,9.71
2018-05-21T00:46:47.090Z,9.70
2018-05-21T00:49:14.698Z,9.67
2018-05-21T00:51:42.324Z,9.65
2018-05-21T00:54:09.928Z,9.62
2018-05-21T00:56:37.558Z,9.61
2018-05-21T00:59:05.194Z,9.59
2018-05-21T01:01:32.823Z,9.58
2018-05-21T01:04:00.421Z,9.57
2018-05-21T01:06:28.046Z,9.55
2018-05-21T01:08:55.738Z,9.51
2018-05-21T01:11:23.369Z,9.50
2018-05-21T01:13:50.968Z,9.47
2018-05-21T01:16:18.622Z,9.46
2018-05-21T01:18:46.230Z,9.44
2018-05-21T01:21:13.836Z,9.44
2018-05-21T01:23:41.458Z,9.43
2018-05-21T01:26:09.054Z,9.42
2018-05-21T01:28:36.675Z,9.40
2018-05-21T01:31:04.274Z,9.37
2018-05-21T01:33:31.893Z,9.35
2018-05-21T01:35:59.619Z,9.33
2018-05-21T01:38:27.279Z,9.32
2018-05-21T01:40:54.941Z,9.31
2018-05-21T01:43:22.601Z,9.29
2018-05-21T01:45:50.202Z,9.29
2018-05-21T01:48:17.826Z,9.27
2018-05-21T01:50:45.499Z,9.26
2018-05-21T01:53:13.158Z,9.25
2018-05-21T01:55:40.823Z,9.26
2018-05-21T01:58:08.446Z,9.27
2018-05-21T02:00:36.143Z,9.27
2018-05-21T02:03:03.812Z,9.28
2018-05-21T02:05:31.426Z,9.28
2018-05-21T02:07:59.056Z,9.27
2018-05-21T02:10:26.661Z,9.25
2018-05-21T02:12:54.359Z,9.25
2018-05-21T02:15:21.971Z,9.24
2018-05-21T02:17:49.611Z,9.23
2018-05-21T02:20:17.219Z,9.20
2018-05-21T02:22:44.847Z,9.18
2018-05-21T02:25:12.457Z,9.17
2018-05-21T02:27:40.122Z,9.15
2018-05-21T02:30:07.714Z,9.13
2018-05-21T02:32:35.358Z,9.12
2018-05-21T02:35:02.974Z,9.10
2018-05-21T02:37:30.671Z,9.08
2018-05-21T02:39:58.303Z,9.06
2018-05-21T02:42:25.911Z,9.05
2018-05-21T02:44:53.551Z,9.04
2018-05-21T02:47:21.222Z,9.04
2018-05-21T02:49:48.927Z,9.05
2018-05-21T02:52:16.486Z,9.05
2018-05-21T02:54:44.119Z,9.05
2018-05-21T02:57:11.728Z,9.05
2018-05-21T02:59:39.426Z,9.05
2018-05-21T03:02:07.032Z,9.04
2018-05-21T03:04:34.754Z,9.03
2018-05-21T03:07:02.358Z,9.04
2018-05-21T03:09:30.079Z,9.04
2018-05-21T03:11:57.678Z,9.04
2018-05-21T03:14:25.401Z,9.03
2018-05-21T03:16:53.014Z,9.03
2018-05-21T03:19:20.635Z,9.02
2018-05-21T03:21:48.238Z,9.02
2018-05-21T03:24:15.959Z,9.02
2018-05-21T03:26:43.563Z,9.03
2018-05-21T03:29:11.186Z,9.03
2018-05-21T03:31:38.791Z,9.02
2018-05-21T03:34:06.428Z,9.01
2018-05-21T03:36:34.030Z,9.02
2018-05-21T03:39:02.302Z,9.02
2018-05-21T03:41:29.998Z,9.03
2018-05-21T03:43:57.634Z,9.04
2018-05-21T03:46:25.234Z,9.05
2018-05-21T03:48:52.892Z,9.07
2018-05-21T03:51:20.514Z,9.08
2018-05-21T03:53:48.120Z,9.09
2018-05-21T03:56:15.775Z,9.12
2018-05-21T03:58:55.327Z,9.21
2018-05-21T04:01:34.762Z,9.48
2018-05-21T04:04:02.395Z,9.77
2018-05-21T04:06:30.031Z,10.07
2018-05-21T04:08:57.644Z,10.34
2018-05-21T04:11:25.319Z,10.60
2018-05-21T04:13:52.935Z,10.84
2018-05-21T04:16:20.571Z,11.08
2018-05-21T04:18:48.283Z,11.40
2018-05-21T04:21:15.835Z,11.73
2018-05-21T04:23:43.511Z,12.07
2018-05-21T04:26:11.138Z,12.36
2018-05-21T04:28:38.759Z,12.53
2018-05-21T04:31:06.507Z,12.72
2018-05-21T04:33:34.116Z,12.76
2018-05-21T04:36:01.747Z,12.71
2018-05-21T04:38:29.351Z,12.64
2018-05-21T04:40:57.056Z,12.54
2018-05-21T04:43:24.659Z,12.45
2018-05-21T04:45:52.379Z,12.37
2018-05-21T04:48:20.015Z,12.33
2018-05-21T04:50:47.694Z,12.32
2018-05-21T04:53:15.332Z,12.30
2018-05-21T04:55:43.023Z,12.28
2018-05-21T04:58:10.686Z,12.27
2018-05-21T05:00:38.345Z,12.26
2018-05-21T05:03:05.979Z,12.27
2018-05-21T05:05:33.592Z,12.29
2018-05-21T05:08:01.215Z,12.33
2018-05-21T05:10:28.894Z,12.35
2018-05-21T05:12:56.532Z,12.39
2018-05-21T05:15:24.146Z,12.41
2018-05-21T05:17:51.786Z,12.46
2018-05-21T05:20:19.390Z,12.50
2018-05-21T05:22:47.026Z,12.55
2018-05-21T05:25:14.670Z,12.58
2018-05-21T05:27:42.293Z,12.61
2018-05-21T05:30:09.905Z,12.65
2018-05-21T05:32:37.550Z,12.70
2018-05-21T05:35:05.214Z,12.76
2018-05-21T05:37:32.878Z,12.83
2018-05-21T05:40:00.483Z,12.89
2018-05-21T05:42:28.202Z,12.95
2018-05-21T05:44:55.878Z,13.03
2018-05-21T05:47:23.517Z,13.13
2018-05-21T05:49:51.192Z,13.24
2018-05-21T05:52:18.863Z,13.35
2018-05-21T05:54:46.470Z,13.47
2018-05-21T05:57:14.117Z,13.62
2018-05-21T05:59:41.722Z,13.77
2018-05-21T06:02:09.326Z,13.94
2018-05-21T06:04:36.951Z,14.09
2018-05-21T06:07:04.622Z,14.22
2018-05-21T06:09:32.287Z,14.37
2018-05-21T06:11:59.916Z,14.53
2018-05-21T06:14:27.559Z,14.71
2018-05-21T06:16:55.174Z,14.87
2018-05-21T06:19:22.834Z,15.01
2018-05-21T06:21:50.510Z,15.13
2018-05-21T06:24:18.162Z,15.25
2018-05-21T06:26:45.767Z,15.36
2018-05-21T06:29:13.416Z,15.48
2018-05-21T06:31:41.027Z,15.57
2018-05-21T06:34:08.797Z,15.65
2018-05-21T06:36:36.371Z,15.71
2018-05-21T06:39:04.008Z,15.78
2018-05-21T06:41:31.622Z,15.84
2018-05-21T06:43:59.247Z,15.91
2018-05-21T06:46:26.850Z,15.99
2018-05-21T06:48:54.579Z,16.08
2018-05-21T06:51:22.190Z,16.19
2018-05-21T06:53:50.005Z,16.28
2018-05-21T06:56:17.618Z,16.35
2018-05-21T06:58:45.250Z,16.46
2018-05-21T07:01:12.859Z,16.57
2018-05-21T07:03:40.490Z,16.66
2018-05-21T07:06:08.119Z,16.78
2018-05-21T07:08:35.774Z,16.89
2018-05-21T07:11:03.541Z,17.00
2018-05-21T07:13:31.206Z,17.10
2018-05-21T07:15:58.871Z,17.20
2018-05-21T07:18:26.534Z,17.32
2018-05-21T07:20:54.191Z,17.46
2018-05-21T07:23:21.806Z,17.58
2018-05-21T07:25:49.443Z,17.70
2018-05-21T07:28:17.050Z,17.82
2018-05-21T07:30:44.678Z,17.93
2018-05-21T07:33:12.312Z,18.06
2018-05-21T07:35:39.948Z,18.17
2018-05-21T07:38:08.347Z,18.28
2018-05-21T07:40:36.010Z,18.41
2018-05-21T07:43:03.622Z,18.54
2018-05-21T07:45:31.246Z,18.66
2018-05-21T07:47:58.894Z,18.80
2018-05-21T07:50:26.532Z,18.93
2018-05-21T07:52:54.152Z,19.05
2018-05-21T07:55:21.781Z,19.16
2018-05-21T07:57:49.456Z,19.26
2018-05-21T08:00:17.086Z,19.37
2018-05-21T08:02:44.690Z,19.46
2018-05-21T08:05:12.343Z,19.54
2018-05-21T08:07:39.947Z,19.63
2018-05-21T08:10:07.604Z,19.73
2018-05-21T08:12:35.314Z,19.83
2018-05-21T08:15:02.918Z,19.94
2018-05-21T08:17:30.547Z,20.05
2018-05-21T08:19:58.198Z,20.14
2018-05-21T08:22:25.840Z,20.22
2018-05-21T08:24:55.157Z,20.28
2018-05-21T08:27:21.316Z,20.35
2018-05-21T08:29:48.959Z,20.44
2018-05-21T08:32:16.626Z,20.54
2018-05-21T08:34:44.234Z,20.62
2018-05-21T08:37:11.867Z,20.69
2018-05-21T08:39:39.485Z,20.78
2018-05-21T08:42:07.110Z,20.87
2018-05-21T08:44:34.715Z,20.98
2018-05-21T08:47:02.352Z,21.06
2018-05-21T08:49:29.958Z,21.13
2018-05-21T08:51:57.619Z,21.18
2018-05-21T08:54:25.269Z,21.25
2018-05-21T08:56:52.931Z,21.35
2018-05-21T08:59:20.599Z,21.46
2018-05-21T09:01:48.257Z,21.59
2018-05-21T09:04:15.868Z,21.71
2018-05-21T09:06:43.507Z,21.81
2018-05-21T09:09:11.152Z,21.90
2018-05-21T09:11:38.790Z,21.99
2018-05-21T09:14:06.403Z,22.07
2018-05-21T09:16:34.148Z,22.13
2018-05-21T09:19:01.794Z,22.13
2018-05-21T09:21:29.443Z,22.13
2018-05-21T09:23:57.058Z,22.12
2018-05-21T09:26:24.680Z,22.13
2018-05-21T09:28:52.306Z,22.15
2018-05-21T09:31:20.069Z,22.18
2018-05-21T09:33:47.780Z,22.24
2018-05-21T09:36:15.442Z,22.31
2018-05-21T09:38:43.074Z,22.40
2018-05-21T09:41:10.759Z,22.49
2018-05-21T09:43:38.396Z,22.55
2018-05-21T09:46:06.698Z,22.64
2018-05-21T09:48:34.408Z,22.76
2018-05-21T09:51:01.956Z,22.86
2018-05-21T09:53:29.588Z,22.95
2018-05-21T09:55:57.246Z,23.02
2018-05-21T09:58:24.882Z,23.10
2018-05-21T10:00:55.334Z,23.21
2018-05-21T10:03:22.962Z,23.31
2018-05-21T10:05:50.566Z,23.40
2018-05-21T10:08:18.204Z,23.46
2018-05-21T10:10:45.891Z,23.49
2018-05-21T10:13:13.647Z,23.51
2018-05-21T10:15:41.318Z,23.53
2018-05-21T10:18:08.947Z,23.57
2018-05-21T10:20:36.558Z,23.61
2018-05-21T10:23:04.193Z,23.64
2018-05-21T10:25:31.797Z,23.69
2018-05-21T10:27:59.433Z,23.74
2018-05-21T10:30:27.092Z,23.76
2018-05-21T10:32:54.724Z,23.73
2018-05-21T10:35:22.413Z,23.74
2018-05-21T10:37:50.063Z,23.77
2018-05-21T10:40:17.688Z,23.83
2018-05-21T10:42:45.307Z,23.89
2018-05-21T10:45:12.960Z,23.94
2018-05-21T10:47:40.575Z,24.00
2018-05-21T10:50:08.202Z,24.03
2018-05-21T10:52:35.806Z,24.07
2018-05-21T10:55:03.434Z,24.13
2018-05-21T10:57:31.073Z,24.20
2018-05-21T10:59:58.691Z,24.27
2018-05-21T11:02:26.390Z,24.35
2018-05-21T11:04:54.054Z,24.42
2018-05-21T11:07:21.667Z,24.47
2018-05-21T11:09:49.378Z,24.48
2018-05-21T11:12:17.104Z,24.48
2018-05-21T11:14:44.695Z,24.49
2018-05-21T11:17:12.313Z,24.50
2018-05-21T11:19:39.952Z,24.50
2018-05-21T11:22:07.559Z,24.51
2018-05-21T11:24:35.273Z,24.52
2018-05-21T11:27:02.848Z,24.52
2018-05-21T11:29:30.484Z,24.55
2018-05-21T11:31:58.095Z,24.56
2018-05-21T11:34:25.759Z,24.60
2018-05-21T11:36:53.362Z,24.58
2018-05-21T11:39:20.996Z,24.62
2018-05-21T11:41:48.611Z,24.64
2018-05-21T11:44:16.356Z,24.69
2018-05-21T11:46:44.006Z,24.69
2018-05-21T11:49:11.639Z,24.72
2018-05-21T11:51:39.296Z,24.75
2018-05-21T11:54:06.894Z,24.77
2018-05-21T11:56:34.527Z,24.83
2018-05-21T11:59:02.130Z,24.87
2018-05-21T12:01:29.761Z,24.91
2018-05-21T12:03:57.370Z,24.93
2018-05-21T12:06:25.111Z,24.96
2018-05-21T12:08:52.719Z,24.96
2018-05-21T12:11:20.354Z,24.96
2018-05-21T12:13:47.987Z,24.94
2018-05-21T12:16:15.642Z,24.95
2018-05-21T12:18:43.327Z,24.98
2018-05-21T12:21:10.958Z,25.01
2018-05-21T12:23:38.683Z,25.04
2018-05-21T12:26:06.360Z,25.10
2018-05-21T12:28:34.047Z,25.17
2018-05-21T12:31:01.790Z,25.21
2018-05-21T12:33:29.568Z,25.23
2018-05-21T12:35:57.210Z,25.24
2018-05-21T12:38:24.920Z,25.27
2018-05-21T12:40:52.554Z,25.29
2018-05-21T12:43:20.162Z,25.32
2018-05-21T12:45:47.814Z,25.34
2018-05-21T12:48:15.470Z,25.38
2018-05-21T12:50:43.134Z,25.44
2018-05-21T12:53:10.751Z,25.50
2018-05-21T12:55:38.386Z,25.55
2018-05-21T12:58:05.999Z,25.60
2018-05-21T13:00:33.640Z,25.64
2018-05-21T13:03:01.339Z,25.67
2018-05-21T13:05:28.991Z,25.68
2018-05-21T13:07:56.603Z,25.70
2018-05-21T13:10:24.230Z,25.73
2018-05-21T13:12:51.858Z,25.76
2018-05-21T13:15:19.608Z,25.83
2018-05-21T13:17:47.318Z,25.84
2018-05-21T13:20:14.930Z,25.81
2018-05-21T13:22:42.562Z,25.79
2018-05-21T13:25:10.404Z,25.74
2018-05-21T13:27:38.077Z,25.68
2018-05-21T13:30:05.720Z,25.62
2018-05-21T13:32:33.351Z,25.58
2018-05-21T13:35:01.064Z,25.54
2018-05-21T13:37:28.723Z,25.45
2018-05-21T13:39:56.339Z,25.33
2018-05-21T13:42:23.976Z,25.27
2018-05-21T13:44:51.611Z,25.14
2018-05-21T13:47:19.238Z,25.06
2018-05-21T13:49:46.935Z,25.01
2018-05-21T13:52:14.605Z,24.97
2018-05-21T13:54:42.255Z,24.91
2018-05-21T13:57:09.882Z,24.88
2018-05-21T13:59:37.487Z,24.88
2018-05-21T14:02:05.142Z,24.83
2018-05-21T14:04:32.806Z,24.80
2018-05-21T14:07:00.667Z,24.76
2018-05-21T14:09:28.534Z,24.72
2018-05-21T14:11:56.207Z,24.66
2018-05-21T14:14:23.871Z,24.51
2018-05-21T14:16:52.139Z,24.46
2018-05-21T14:19:19.802Z,24.44
2018-05-21T14:21:47.435Z,24.41
2018-05-21T14:24:15.072Z,24.40
2018-05-21T14:26:42.798Z,24.44
2018-05-21T14:29:10.757Z,24.50
2018-05-21T14:31:38.407Z,24.56
2018-05-21T14:34:06.040Z,24.57
2018-05-21T14:36:33.647Z,24.56
2018-05-21T14:39:01.275Z,24.55
2018-05-21T14:41:28.893Z,24.52
2018-05-21T14:43:56.643Z,24.51
2018-05-21T14:46:24.300Z,24.51
2018-05-21T14:48:51.956Z,24.44
2018-05-21T14:51:19.715Z,24.38
2018-05-21T14:53:47.387Z,24.35
2018-05-21T14:56:14.990Z,24.31
2018-05-21T14:58:42.628Z,24.26
2018-05-21T15:01:10.239Z,24.22
2018-05-21T15:03:37.929Z,24.14
2018-05-21T15:06:05.535Z,24.05
2018-05-21T15:08:33.168Z,23.98
2018-05-21T15:11:00.779Z,23.91
2018-05-21T15:13:28.416Z,23.88
2018-05-21T15:15:56.046Z,23.84
2018-05-21T15:18:23.682Z,23.80
2018-05-21T15:20:51.291Z,23.76
2018-05-21T15:23:18.924Z,23.72
2018-05-21T15:25:46.531Z,23.67
2018-05-21T15:28:14.251Z,23.63
2018-05-21T15:30:41.875Z,23.60
2018-05-21T15:33:09.575Z,23.55
2018-05-21T15:35:37.178Z,23.52
2018-05-21T15:38:04.782Z,23.46
2018-05-21T15:40:32.458Z,23.44
2018-05-21T15:43:00.063Z,23.43
2018-05-21T15:45:27.687Z,23.42
2018-05-21T15:47:55.351Z,23.43
2018-05-21T15:50:22.986Z,23.45
2018-05-21T15:52:50.591Z,23.43
2018-05-21T15:55:18.224Z,23.39
2018-05-21T15:57:45.830Z,23.35
2018-05-21T16:00:13.454Z,23.34
2018-05-21T16:02:41.057Z,23.30
2018-05-21T16:05:08.773Z,23.27
2018-05-21T16:07:36.387Z,23.22
2018-05-21T16:10:04.101Z,23.18
2018-05-21T16:12:31.706Z,23.15
2018-05-21T16:14:59.348Z,23.14
2018-05-21T16:17:26.984Z,23.13
2018-05-21T16:19:54.690Z,23.12
2018-05-21T16:22:22.294Z,23.10
2018-05-21T16:24:49.978Z,23.14
2018-05-21T16:27:17.736Z,23.28
2018-05-21T16:29:45.366Z,23.46
2018-05-21T16:32:12.967Z,23.69
2018-05-21T16:34:40.594Z,23.94
2018-05-21T16:37:08.212Z,24.19
2018-05-21T16:39:35.842Z,24.41
2018-05-21T16:42:03.507Z,24.63
2018-05-21T16:44:31.138Z,24.83
2018-05-21T16:46:58.834Z,25.03
2018-05-21T16:49:26.494Z,25.14
2018-05-21T16:51:54.098Z,25.22
2018-05-21T16:54:21.715Z,25.32
2018-05-21T16:56:49.382Z,25.38
2018-05-21T16:59:17.643Z,25.37
2018-05-21T17:01:45.274Z,25.36
2018-05-21T17:04:12.982Z,25.33
2018-05-21T17:06:40.621Z,25.28
2018-05-21T17:09:08.230Z,25.24
2018-05-21T17:11:35.865Z,25.18
2018-05-21T17:14:03.584Z,25.12
2018-05-21T17:16:31.303Z,25.03
2018-05-21T17:18:58.920Z,24.94
2018-05-21T17:21:26.562Z,24.83
2018-05-21T17:23:54.282Z,24.74
2018-05-21T17:26:21.946Z,24.69
2018-05-21T17:28:49.550Z,24.60
2018-05-21T17:31:17.230Z,24.45
2018-05-21T17:33:44.830Z,24.17
2018-05-21T17:36:12.475Z,23.83
2018-05-21T17:38:40.080Z,23.49
2018-05-21T17:41:07.713Z,23.15
2018-05-21T17:43:35.324Z,22.85
2018-05-21T17:46:03.047Z,22.52
2018-05-21T17:48:30.712Z,22.25
2018-05-21T17:50:58.651Z,21.99
2018-05-21T17:53:26.263Z,21.76
2018-05-21T17:55:54.004Z,21.52
2018-05-21T17:58:21.614Z,21.27
2018-05-21T18:00:49.239Z,21.10
2018-05-21T18:03:16.888Z,20.94
2018-05-21T18:05:44.551Z,20.79
2018-05-21T18:08:12.183Z,20.66
2018-05-21T18:10:39.796Z,20.54
2018-05-21T18:13:07.424Z,20.43
2018-05-21T18:15:35.100Z,20.33
2018-05-21T18:18:02.771Z,20.24
2018-05-21T18:20:30.728Z,20.16
2018-05-21T18:22:59.963Z,20.09
2018-05-21T18:25:27.577Z,20.00
2018-05-21T18:27:55.214Z,19.90
2018-05-21T18:30:22.827Z,19.82
2018-05-21T18:32:50.477Z,19.72
2018-05-21T18:35:18.082Z,19.63
2018-05-21T18:37:45.804Z,19.54
2018-05-21T18:40:13.467Z,19.46
2018-05-21T18:42:41.134Z,19.39
2018-05-21T18:45:08.765Z,19.31
2018-05-21T18:47:36.451Z,19.25
2018-05-21T18:50:04.055Z,19.18
2018-05-21T18:52:31.835Z,19.12
2018-05-21T18:54:59.544Z,19.05
2018-05-21T18:57:27.208Z,18.98
2018-05-21T18:59:54.820Z,18.92
2018-05-21T19:02:22.460Z,18.85
2018-05-21T19:04:50.197Z,18.79
2018-05-21T19:07:17.854Z,18.70
2018-05-21T19:09:45.519Z,18.64
2018-05-21T19:12:13.154Z,18.58
2018-05-21T19:14:40.845Z,18.52
2018-05-21T19:17:08.482Z,18.44
2018-05-21T19:19:36.162Z,18.36
2018-05-21T19:22:03.771Z,18.29
2018-05-21T19:24:31.406Z,18.22
2018-05-21T19:26:59.010Z,18.15
2018-05-21T19:29:26.647Z,18.07
2018-05-21T19:31:54.246Z,18.00
2018-05-21T19:34:21.892Z,17.96
2018-05-21T19:36:49.599Z,17.91
2018-05-21T19:39:17.226Z,17.86
2018-05-21T19:41:44.831Z,17.80
2018-05-21T19:44:12.479Z,17.75
2018-05-21T19:46:40.231Z,17.69
2018-05-21T19:49:07.874Z,17.64
2018-05-21T19:51:35.570Z,17.58
2018-05-21T19:54:03.239Z,17.51
2018-05-21T19:56:30.903Z,17.44
2018-05-21T19:58:58.542Z,17.39
2018-05-21T20:01:26.222Z,17.37
2018-05-21T20:03:53.883Z,17.33
2018-05-21T20:06:21.712Z,17.30
2018-05-21T20:08:49.423Z,17.28
2018-05-21T20:11:17.074Z,17.27
2018-05-21T20:13:44.727Z,17.26
2018-05-21T20:16:12.346Z,17.24
2018-05-21T20:18:39.979Z,17.22
2018-05-21T20:21:07.582Z,17.17
2018-05-21T20:23:35.210Z,17.15
2018-05-21T20:26:02.815Z,17.11
2018-05-21T20:28:30.516Z,17.06
2018-05-21T20:30:58.142Z,17.00
2018-05-21T20:33:25.766Z,16.94
2018-05-21T20:35:53.390Z,16.89
2018-05-21T20:38:20.990Z,16.86
2018-05-21T20:40:48.623Z,16.81
2018-05-21T20:43:16.278Z,16.75
2018-05-21T20:45:43.912Z,16.69
2018-05-21T20:48:11.607Z,16.60
2018-05-21T20:50:39.238Z,16.53
2018-05-21T20:53:06.853Z,16.47
2018-05-21T20:55:34.481Z,16.40
2018-05-21T20:58:02.154Z,16.36
2018-05-21T21:00:29.810Z,16.31
2018-05-21T21:02:57.414Z,16.26
2018-05-21T21:05:25.060Z,16.21
2018-05-21T21:07:52.695Z,16.16
2018-05-21T21:10:21.091Z,16.12
2018-05-21T21:12:48.742Z,16.08
2018-05-21T21:15:16.398Z,16.04
2018-05-21T21:17:44.002Z,15.99
2018-05-21T21:20:11.638Z,15.95
2018-05-21T21:22:39.251Z,15.88
2018-05-21T21:25:06.886Z,15.82
2018-05-21T21:27:34.491Z,15.77
2018-05-21T21:30:02.141Z,15.72
2018-05-21T21:32:29.780Z,15.66
2018-05-21T21:34:57.389Z,15.61
2018-05-21T21:37:25.155Z,15.55
2018-05-21T21:39:52.821Z,15.49
2018-05-21T21:42:20.458Z,15.43
2018-05-21T21:44:48.070Z,15.38
2018-05-21T21:47:15.707Z,15.34
2018-05-21T21:49:43.314Z,15.30
2018-05-21T21:52:11.030Z,15.26
2018-05-21T21:54:38.634Z,15.21
2018-05-21T21:57:06.372Z,15.17
2018-05-21T21:59:34.023Z,15.12
2018-05-21T22:02:01.679Z,15.08
2018-05-21T22:04:29.326Z,15.05
2018-05-21T22:06:57.010Z,15.01
2018-05-21T22:09:24.627Z,14.97
2018-05-21T22:11:52.255Z,14.96
2018-05-21T22:14:19.894Z,14.94
2018-05-21T22:16:47.518Z,14.91
2018-05-21T22:19:15.126Z,14.86
2018-05-21T22:21:42.766Z,14.83
2018-05-21T22:24:10.438Z,14.77
2018-05-21T22:26:38.071Z,14.73
2018-05-21T22:29:05.675Z,14.69
2018-05-21T22:31:33.306Z,14.64
2018-05-21T22:34:00.991Z,14.57
2018-05-21T22:36:28.618Z,14.51
2018-05-21T22:38:56.231Z,14.45
2018-05-21T22:41:23.867Z,14.40
2018-05-21T22:43:51.544Z,14.37
2018-05-21T22:46:19.154Z,14.32
2018-05-21T22:48:46.784Z,14.29
2018-05-21T22:51:14.451Z,14.25
2018-05-21T22:53:42.182Z,14.21
2018-05-21T22:56:09.792Z,14.18
2018-05-21T22:58:37.506Z,14.11
2018-05-21T23:01:05.114Z,14.05
2018-05-21T23:03:32.833Z,14.00
2018-05-21T23:06:00.435Z,13.94
2018-05-21T23:08:28.157Z,13.89
2018-05-21T23:10:55.767Z,13.84
2018-05-21T23:13:23.395Z,13.80
2018-05-21T23:15:51.005Z,13.76
2018-05-21T23:18:18.716Z,13.73
2018-05-21T23:20:46.329Z,13.69
2018-05-21T23:23:13.963Z,13.65
2018-05-21T23:25:41.594Z,13.61
2018-05-21T23:28:09.219Z,13.57
2018-05-21T23:30:36.927Z,13.53
2018-05-21T23:33:04.554Z,13.49
2018-05-21T23:35:32.171Z,13.45
2018-05-21T23:37:59.905Z,13.40
2018-05-21T23:40:27.524Z,13.35
2018-05-21T23:42:55.234Z,13.29
2018-05-21T23:45:22.848Z,13.23
2018-05-21T23:47:50.478Z,13.18
2018-05-21T23:50:18.112Z,13.14
2018-05-21T23:52:45.743Z,13.10
2018-05-21T23:55:13.442Z,13.08
2018-05-21T23:57:41.046Z,13.06
